Time,TemperatureF,DewpointF,PressureIn,WindDirection,WindDirectionDegrees,WindSpeedMPH,WindSpeedGustMPH,Humidity,HourlyPrecipIn,Conditions,Clouds,dailyrainin,SoftwareType,DateUTC
2013-07-09 00:05:00,76.7,67.8,30.02,South,180,3.0,6.0,74,0.00,OVC,OVC,0.00,WeatherDisplay:10.31,2013-07-09 04:05:00,
2013-07-09 00:10:00,76.5,68.0,30.02,South,180,5.0,5.0,75,0.00,OVC,OVC,0.00,WeatherDisplay:10.31,2013-07-09 04:10:00,
2013-07-09 00:15:00,76.3,68.2,30.02,South,180,5.0,6.0,76,0.00,OVC,OVC,0.00,WeatherDisplay:10.31,2013-07-09 04:15:00,
2013-07-09 00:20:00,76.1,68.0,30.01,South,185,5.0,7.0,76,0.00,OVC,OVC,0.00,WeatherDisplay:10.31,2013-07-09 04:20:00,
2013-07-09 00:30:00,76.0,68.3,30.01,SSW,202,5.0,6.0,77,0.00,OVC,OVC,0.00,WeatherDisplay:10.31,2013-07-09 04:30:00,
2013-07-09 00:40:00,76.0,68.3,30.01,SSW,202,3.0,6.0,77,0.00,OVC,OVC,0.00,WeatherDisplay:10.31,2013-07-09 04:40:00,
2013-07-09 00:50:00,75.8,68.1,30.01,SSW,202,5.0,7.0,77,0.00,OVC,OVC,0.00,WeatherDisplay:10.31,2013-07-09 04:50:00,
2013-07-09 01:00:00,75.6,67.9,30.02,SSW,202,5.0,6.0,77,0.00,OVC,OVC,0.00,WeatherDisplay:10.31,2013-07-09 05:00:00,
2013-07-09 01:05:00,75.6,68.3,30.02,SSW,202,6.0,8.0,78,0.00,OVC,OVC,0.00,WeatherDisplay:10.31,2013-07-09 05:05:00,
2013-07-09 01:10:00,75.5,68.1,30.02,SSW,202,5.0,9.0,78,0.00,OVC,OVC,0.00,WeatherDisplay:10.31,2013-07-09 05:10:00,
2013-07-09 01:20:00,75.4,68.1,30.02,SSW,202,7.0,9.0,78,0.00,OVC,OVC,0.00,WeatherDisplay:10.31,2013-07-09 05:20:00,
2013-07-09 01:25:00,75.3,68.0,30.02,SSW,202,7.0,9.0,78,0.00,OVC,OVC,0.00,WeatherDisplay:10.31,2013-07-09 05:25:00,
2013-07-09 01:30:00,75.3,68.0,30.02,SSW,202,6.0,7.0,78,0.00,OVC,OVC,0.00,WeatherDisplay:10.31,2013-07-09 05:30:00,
2013-07-09 01:40:00,75.1,68.1,30.02,SSW,202,6.0,10.0,79,0.00,OVC,OVC,0.00,WeatherDisplay:10.31,2013-07-09 05:40:00,
2013-07-09 01:50:00,74.9,67.9,30.02,SSW,210,8.0,10.0,79,0.00,OVC,OVC,0.00,WeatherDisplay:10.31,2013-07-09 05:50:00,
2013-07-09 02:00:00,75.1,68.1,30.01,SSW,211,5.0,8.0,79,0.00,OVC,OVC,0.00,WeatherDisplay:10.31,2013-07-09 06:00:00,
2013-07-09 02:05:00,75.1,68.1,30.01,SW,220,7.0,9.0,79,0.00,OVC,OVC,0.00,WeatherDisplay:10.31,2013-07-09 06:05:00,
2013-07-09 02:10:00,75.1,68.1,30.01,SW,225,7.0,9.0,79,0.00,OVC,OVC,0.00,WeatherDisplay:10.31,2013-07-09 06:10:00,
2013-07-09 02:20:00,74.9,68.3,30.01,SW,220,6.0,9.0,80,0.00,OVC,OVC,0.00,WeatherDisplay:10.31,2013-07-09 06:20:00,
2013-07-09 02:30:00,74.7,68.1,30.00,SW,223,5.0,6.0,80,0.00,OVC,OVC,0.00,WeatherDisplay:10.31,2013-07-09 06:30:00,
2013-07-09 02:40:00,74.6,68.4,30.00,SW,225,5.0,7.0,81,0.00,OVC,OVC,0.00,WeatherDisplay:10.31,2013-07-09 06:40:00,
2013-07-09 02:50:00,74.4,68.5,30.00,SW,225,3.0,6.0,82,0.00,OVC,OVC,0.00,WeatherDisplay:10.31,2013-07-09 06:50:00,
2013-07-09 03:00:00,74.4,68.5,30.00,SSW,210,3.0,7.0,82,0.00,OVC,OVC,0.00,WeatherDisplay:10.31,2013-07-09 07:00:00,
2013-07-09 03:05:00,74.4,68.9,30.00,SSW,202,2.0,3.0,83,0.00,OVC,OVC,0.00,WeatherDisplay:10.31,2013-07-09 07:05:00,
2013-07-09 03:10:00,74.2,68.7,30.00,SSW,202,1.0,3.0,83,0.00,OVC,OVC,0.00,WeatherDisplay:10.31,2013-07-09 07:10:00,
2013-07-09 03:20:00,74.2,68.7,30.00,SSW,202,2.0,3.0,83,0.00,OVC,OVC,0.00,WeatherDisplay:10.31,2013-07-09 07:20:00,
2013-07-09 03:30:00,74.0,68.5,30.00,SSW,202,1.0,3.0,83,0.00,OVC,OVC,0.00,WeatherDisplay:10.31,2013-07-09 07:30:00,
2013-07-09 03:40:00,73.9,68.8,29.99,SSW,202,0.0,1.0,84,0.00,OVC,OVC,0.00,WeatherDisplay:10.31,2013-07-09 07:40:00,
2013-07-09 03:55:00,73.5,68.7,30.01,SSW,202,5.0,6.0,85,0.00,OVC,OVC,0.00,WeatherDisplay:10.31,2013-07-09 07:55:00,
2013-07-09 04:00:00,73.5,69.1,30.01,SSW,194,5.0,6.0,86,0.00,OVC,OVC,0.00,WeatherDisplay:10.31,2013-07-09 08:00:00,
2013-07-09 04:05:00,73.3,68.9,30.01,South,183,5.0,7.0,86,0.00,OVC,OVC,0.00,WeatherDisplay:10.31,2013-07-09 08:05:00,
2013-07-09 04:10:00,73.3,69.2,30.01,South,180,6.0,7.0,87,0.00,OVC,OVC,0.00,WeatherDisplay:10.31,2013-07-09 08:10:00,
2013-07-09 04:20:00,73.2,69.1,30.01,SSW,198,6.0,7.0,87,0.00,OVC,OVC,0.00,WeatherDisplay:10.31,2013-07-09 08:20:00,
2013-07-09 04:30:00,73.2,69.4,30.01,SSW,202,5.0,9.0,88,0.00,OVC,OVC,0.00,WeatherDisplay:10.31,2013-07-09 08:30:00,
2013-07-09 04:40:00,73.0,69.2,30.01,SSW,202,3.0,6.0,88,0.00,OVC,OVC,0.00,WeatherDisplay:10.31,2013-07-09 08:40:00,
2013-07-09 04:50:00,73.2,69.4,30.01,SSW,202,5.0,9.0,88,0.00,OVC,OVC,0.00,WeatherDisplay:10.31,2013-07-09 08:50:00,
2013-07-09 05:00:00,73.1,69.7,30.01,SSW,202,3.0,3.0,89,0.00,OVC,OVC,0.00,WeatherDisplay:10.31,2013-07-09 09:00:00,
2013-07-09 05:10:00,73.0,69.6,30.01,SSW,202,3.0,6.0,89,0.00,OVC,OVC,0.00,WeatherDisplay:10.31,2013-07-09 09:10:00,
2013-07-09 05:20:00,73.0,69.6,30.01,SSW,202,1.0,3.0,89,0.00,OVC,OVC,0.00,WeatherDisplay:10.31,2013-07-09 09:20:00,
2013-07-09 05:30:00,72.9,69.4,30.01,SSW,202,2.0,3.0,89,0.00,OVC,OVC,0.00,WeatherDisplay:10.31,2013-07-09 09:30:00,
2013-07-09 05:40:00,72.8,69.7,30.01,SSW,202,2.0,3.0,90,0.00,OVC,OVC,0.00,WeatherDisplay:10.31,2013-07-09 09:40:00,
2013-07-09 05:50:00,72.8,69.7,30.01,SSW,202,2.0,3.0,90,0.00,OVC,OVC,0.00,WeatherDisplay:10.31,2013-07-09 09:50:00,
2013-07-09 06:00:00,72.8,69.7,30.02,SSW,202,5.0,7.0,90,0.00,OVC,OVC,0.00,WeatherDisplay:10.31,2013-07-09 10:00:00,
2013-07-09 06:05:00,72.8,69.7,30.02,SSW,202,2.0,6.0,90,0.00,OVC,OVC,0.00,WeatherDisplay:10.31,2013-07-09 10:05:00,
2013-07-09 06:10:00,72.8,69.7,30.02,SSW,202,2.0,3.0,90,0.00,OVC,OVC,0.00,WeatherDisplay:10.31,2013-07-09 10:10:00,
2013-07-09 06:20:00,72.8,70.0,30.02,SSW,202,2.0,3.0,91,0.00,OVC,OVC,0.00,WeatherDisplay:10.31,2013-07-09 10:20:00,
2013-07-09 06:30:00,72.8,70.0,30.02,SSW,202,2.0,3.0,91,0.00,OVC,OVC,0.00,WeatherDisplay:10.31,2013-07-09 10:30:00,
2013-07-09 06:40:00,72.8,70.0,30.03,SSW,202,2.0,5.0,91,0.00,OVC,OVC,0.00,WeatherDisplay:10.31,2013-07-09 10:40:00,
2013-07-09 06:50:00,72.8,70.0,30.03,SSW,202,2.0,3.0,91,0.00,OVC,OVC,0.00,WeatherDisplay:10.31,2013-07-09 10:50:00,
2013-07-09 07:00:00,73.0,70.2,30.02,SSW,202,3.0,3.0,91,0.00,OVC,OVC,0.00,WeatherDisplay:10.31,2013-07-09 11:00:00,
2013-07-09 07:05:00,73.0,69.9,30.02,SSW,202,2.0,3.0,90,0.00,OVC,OVC,0.00,WeatherDisplay:10.31,2013-07-09 11:05:00,
2013-07-09 07:10:00,73.0,69.9,30.03,SSW,202,3.0,3.0,90,0.00,OVC,OVC,0.00,WeatherDisplay:10.31,2013-07-09 11:10:00,
2013-07-09 07:20:00,73.0,69.9,30.02,SSW,202,3.0,5.0,90,0.00,OVC,OVC,0.00,WeatherDisplay:10.31,2013-07-09 11:20:00,
2013-07-09 07:30:00,73.3,70.2,30.02,SSW,202,2.0,3.0,90,0.00,OVC,OVC,0.00,WeatherDisplay:10.31,2013-07-09 11:30:00,
2013-07-09 07:40:00,73.5,70.1,30.03,SSW,202,2.0,3.0,89,0.00,OVC,OVC,0.00,WeatherDisplay:10.31,2013-07-09 11:40:00,
2013-07-09 07:50:00,73.6,69.8,30.03,SSW,202,2.0,5.0,88,0.00,OVC,OVC,0.00,WeatherDisplay:10.31,2013-07-09 11:50:00,
2013-07-09 08:00:00,73.9,70.1,30.02,SSW,202,1.0,3.0,88,0.00,OVC,OVC,0.00,WeatherDisplay:10.31,2013-07-09 12:00:00,
2013-07-09 08:05:00,73.9,70.1,30.03,SSW,202,2.0,3.0,88,0.00,OVC,OVC,0.00,WeatherDisplay:10.31,2013-07-09 12:05:00,
2013-07-09 08:10:00,73.9,69.8,30.03,SSW,202,2.0,3.0,87,0.00,OVC,OVC,0.00,WeatherDisplay:10.31,2013-07-09 12:10:00,
2013-07-09 08:15:00,74.0,69.9,30.04,SSW,202,2.0,3.0,87,0.00,OVC,OVC,0.00,WeatherDisplay:10.31,2013-07-09 12:15:00,
2013-07-09 08:20:00,74.2,69.7,30.04,SSW,202,3.0,3.0,86,0.00,OVC,OVC,0.00,WeatherDisplay:10.31,2013-07-09 12:20:00,
2013-07-09 08:30:00,74.6,69.4,30.03,SSW,202,1.0,3.0,84,0.00,OVC,OVC,0.00,WeatherDisplay:10.31,2013-07-09 12:30:00,
2013-07-09 08:40:00,74.9,69.7,30.04,SSW,202,1.0,3.0,84,0.00,OVC,OVC,0.00,WeatherDisplay:10.31,2013-07-09 12:40:00,
2013-07-09 08:50:00,75.1,69.6,30.04,SSW,202,1.0,3.0,83,0.00,OVC,OVC,0.00,WeatherDisplay:10.31,2013-07-09 12:50:00,
2013-07-09 09:00:00,75.4,70.2,30.03,SSW,202,0.0,1.0,84,0.00,OVC,OVC,0.00,WeatherDisplay:10.31,2013-07-09 13:00:00,
2013-07-09 09:10:00,75.6,70.4,30.04,SSW,202,1.0,3.0,84,0.00,OVC,OVC,0.00,WeatherDisplay:10.31,2013-07-09 13:10:00,
2013-07-09 09:20:00,75.8,70.3,30.04,SSW,202,2.0,3.0,83,0.00,OVC,OVC,0.00,WeatherDisplay:10.31,2013-07-09 13:20:00,
2013-07-09 09:30:00,76.3,70.4,30.04,SSW,202,2.0,3.0,82,0.00,OVC,OVC,0.00,WeatherDisplay:10.31,2013-07-09 13:30:00,
2013-07-09 09:40:00,76.5,70.6,30.04,SSW,202,2.0,3.0,82,0.00,OVC,OVC,0.00,WeatherDisplay:10.31,2013-07-09 13:40:00,
2013-07-09 09:50:00,76.7,70.8,30.04,SSW,202,3.0,5.0,82,0.00,OVC,OVC,0.00,WeatherDisplay:10.31,2013-07-09 13:50:00,
2013-07-09 10:00:00,76.8,70.9,30.04,SSW,202,2.0,5.0,82,0.00,OVC,OVC,0.00,WeatherDisplay:10.31,2013-07-09 14:00:00,
2013-07-09 10:05:00,77.0,71.1,30.04,SSW,202,3.0,3.0,82,0.00,OVC,OVC,0.00,WeatherDisplay:10.31,2013-07-09 14:05:00,
2013-07-09 10:10:00,77.0,71.1,30.04,SSW,202,2.0,6.0,82,0.00,OVC,OVC,0.00,WeatherDisplay:10.31,2013-07-09 14:10:00,
2013-07-09 10:20:00,77.2,71.3,30.04,SSW,202,5.0,5.0,82,0.00,OVC,OVC,0.00,WeatherDisplay:10.31,2013-07-09 14:20:00,
2013-07-09 10:30:00,77.0,71.1,30.04,SSW,202,2.0,6.0,82,0.00,OVC,OVC,0.00,WeatherDisplay:10.31,2013-07-09 14:30:00,
2013-07-09 10:40:00,77.2,71.3,30.04,SSW,202,2.0,3.0,82,0.00,OVC,OVC,0.00,WeatherDisplay:10.31,2013-07-09 14:40:00,
2013-07-09 10:50:00,77.2,71.3,30.04,SSW,202,1.0,3.0,82,0.00,OVC,OVC,0.00,WeatherDisplay:10.31,2013-07-09 14:50:00,
2013-07-09 11:00:00,77.5,71.2,30.04,SSW,202,3.0,5.0,81,0.00,OVC,OVC,0.00,WeatherDisplay:10.31,2013-07-09 15:00:00,
2013-07-09 11:05:00,77.7,71.4,30.04,SSW,202,2.0,6.0,81,0.00,OVC,OVC,0.00,WeatherDisplay:10.31,2013-07-09 15:05:00,
2013-07-09 11:10:00,77.9,71.2,30.04,SSW,202,3.0,7.0,80,0.00,OVC,OVC,0.00,WeatherDisplay:10.31,2013-07-09 15:10:00,
2013-07-09 11:20:00,78.2,71.2,30.04,SSW,202,3.0,6.0,79,0.00,OVC,OVC,0.00,WeatherDisplay:10.31,2013-07-09 15:20:00,
2013-07-09 11:30:00,78.8,71.0,30.04,SSW,202,3.0,7.0,77,0.00,OVC,OVC,0.00,WeatherDisplay:10.31,2013-07-09 15:30:00,
2013-07-09 11:40:00,79.2,71.4,30.04,SSW,202,2.0,3.0,77,0.00,OVC,OVC,0.00,WeatherDisplay:10.31,2013-07-09 15:40:00,
2013-07-09 11:45:00,79.2,70.6,30.04,SSW,202,6.0,7.0,75,0.00,OVC,OVC,0.00,WeatherDisplay:10.31,2013-07-09 15:45:00,
2013-07-09 11:50:00,79.6,69.8,30.04,SSW,202,6.0,7.0,72,0.00,SCT,SCT,0.00,WeatherDisplay:10.31,2013-07-09 15:50:00,
2013-07-09 12:00:00,80.8,70.1,30.04,SSW,202,3.0,7.0,70,0.00,BKN,BKN,0.00,WeatherDisplay:10.31,2013-07-09 16:00:00,
2013-07-09 12:05:00,81.2,69.2,30.04,SSW,202,6.0,9.0,67,0.00,BKN,BKN,0.00,WeatherDisplay:10.31,2013-07-09 16:05:00,
2013-07-09 12:10:00,81.6,69.6,30.03,SSW,201,6.0,8.0,67,0.00,BKN,BKN,0.00,WeatherDisplay:10.31,2013-07-09 16:10:00,
2013-07-09 12:20:00,82.2,70.1,30.03,SSW,202,2.0,6.0,67,0.00,BKN,BKN,0.00,WeatherDisplay:10.31,2013-07-09 16:20:00,
2013-07-09 12:30:00,83.6,69.7,30.03,SSW,202,2.0,7.0,63,0.00,SCT,SCT,0.00,WeatherDisplay:10.31,2013-07-09 16:30:00,
2013-07-09 12:40:00,84.3,68.9,30.03,South,184,3.0,9.0,60,0.00,BKN,BKN,0.00,WeatherDisplay:10.31,2013-07-09 16:40:00,
2013-07-09 12:50:00,84.7,67.8,30.03,South,180,3.0,6.0,57,0.00,OVC,OVC,0.00,WeatherDisplay:10.31,2013-07-09 16:50:00,
2013-07-09 13:00:00,84.5,68.1,30.03,South,180,3.0,6.0,58,0.00,OVC,OVC,0.00,WeatherDisplay:10.31,2013-07-09 17:00:00,
2013-07-09 13:10:00,84.7,68.8,30.02,South,180,2.0,3.0,59,0.00,OVC,OVC,0.00,WeatherDisplay:10.31,2013-07-09 17:10:00,
2013-07-09 13:20:00,84.5,67.6,30.02,South,180,3.0,6.0,57,0.00,OVC,OVC,0.00,WeatherDisplay:10.31,2013-07-09 17:20:00,
2013-07-09 13:30:00,84.5,69.1,30.02,South,180,5.0,5.0,60,0.00,OVC,OVC,0.00,WeatherDisplay:10.31,2013-07-09 17:30:00,
2013-07-09 13:40:00,84.3,69.4,30.02,South,183,3.0,7.0,61,0.00,OVC,OVC,0.00,WeatherDisplay:10.31,2013-07-09 17:40:00,
2013-07-09 13:50:00,83.8,69.4,30.02,South,180,5.0,5.0,62,0.00,OVC,OVC,0.00,WeatherDisplay:10.31,2013-07-09 17:50:00,
2013-07-09 14:00:00,83.6,70.1,30.02,South,180,5.0,5.0,64,0.00,OVC,OVC,0.00,WeatherDisplay:10.31,2013-07-09 18:00:00,
2013-07-09 14:05:00,83.4,70.4,30.02,South,180,1.0,5.0,65,0.00,OVC,OVC,0.00,WeatherDisplay:10.31,2013-07-09 18:05:00,
2013-07-09 14:10:00,83.3,70.3,30.02,South,180,3.0,5.0,65,0.00,OVC,OVC,0.00,WeatherDisplay:10.31,2013-07-09 18:10:00,
2013-07-09 14:20:00,83.2,71.5,30.02,South,180,2.0,3.0,68,0.00,OVC,OVC,0.00,WeatherDisplay:10.31,2013-07-09 18:20:00,
2013-07-09 14:30:00,83.0,71.8,30.02,South,180,0.0,2.0,69,0.00,OVC,OVC,0.00,WeatherDisplay:10.31,2013-07-09 18:30:00,
2013-07-09 14:40:00,82.8,72.0,30.02,South,180,1.0,3.0,70,0.00,OVC,OVC,0.00,WeatherDisplay:10.31,2013-07-09 18:40:00,
2013-07-09 14:50:00,82.5,72.2,30.01,South,180,1.0,3.0,71,0.00,OVC,OVC,0.00,WeatherDisplay:10.31,2013-07-09 18:50:00,
2013-07-09 14:55:00,82.2,71.0,30.01,South,180,2.0,3.0,69,0.00,OVC,OVC,0.00,WeatherDisplay:10.31,2013-07-09 18:55:00,
2013-07-09 15:00:00,82.0,70.8,30.01,South,180,0.0,3.0,69,0.00,OVC,OVC,0.00,WeatherDisplay:10.31,2013-07-09 19:00:00,
2013-07-09 15:10:00,82.0,70.4,30.01,South,180,0.0,1.0,68,0.00,OVC,OVC,0.00,WeatherDisplay:10.31,2013-07-09 19:10:00,
2013-07-09 15:20:00,82.2,71.4,30.00,South,180,1.0,3.0,70,0.00,OVC,OVC,0.00,WeatherDisplay:10.31,2013-07-09 19:20:00,
2013-07-09 15:25:00,82.3,71.1,30.00,South,180,2.0,3.0,69,0.00,OVC,OVC,0.00,WeatherDisplay:10.31,2013-07-09 19:25:00,
2013-07-09 15:30:00,82.4,71.2,30.00,South,180,0.0,5.0,69,0.00,OVC,OVC,0.00,WeatherDisplay:10.31,2013-07-09 19:30:00,
2013-07-09 15:40:00,82.7,71.5,30.00,South,180,1.0,3.0,69,0.00,OVC,OVC,0.00,WeatherDisplay:10.31,2013-07-09 19:40:00,
2013-07-09 15:50:00,82.4,69.0,29.99,South,183,3.0,10.0,64,0.00,OVC,OVC,0.00,WeatherDisplay:10.31,2013-07-09 19:50:00,
2013-07-09 15:55:00,82.4,69.4,29.99,South,180,3.0,5.0,65,0.00,OVC,OVC,0.00,WeatherDisplay:10.31,2013-07-09 19:55:00,
2013-07-09 16:00:00,82.2,67.9,29.99,South,180,5.0,6.0,62,0.00,OVC,OVC,0.00,WeatherDisplay:10.31,2013-07-09 20:00:00,
2013-07-09 16:10:00,82.4,68.5,29.99,South,180,1.0,3.0,63,0.00,OVC,OVC,0.00,WeatherDisplay:10.31,2013-07-09 20:10:00,
2013-07-09 16:20:00,82.6,68.3,29.99,South,180,1.0,3.0,62,0.00,OVC,OVC,0.00,WeatherDisplay:10.31,2013-07-09 20:20:00,
2013-07-09 16:30:00,83.0,68.6,29.99,South,180,1.0,3.0,62,0.00,OVC,OVC,0.00,WeatherDisplay:10.31,2013-07-09 20:30:00,
2013-07-09 16:40:00,83.6,69.2,29.98,South,180,1.0,3.0,62,0.00,BKN,BKN,0.00,WeatherDisplay:10.31,2013-07-09 20:40:00,
2013-07-09 16:50:00,84.0,69.6,29.98,South,180,1.0,5.0,62,0.00,SCT,SCT,0.00,WeatherDisplay:10.31,2013-07-09 20:50:00,
2013-07-09 17:00:00,84.7,69.3,29.97,SSE,165,3.0,6.0,60,0.00,CLR,CLR,0.00,WeatherDisplay:10.31,2013-07-09 21:00:00,
2013-07-09 17:05:00,85.1,70.1,29.97,SE,141,2.0,7.0,61,0.00,BKN,BKN,0.00,WeatherDisplay:10.31,2013-07-09 21:05:00,
2013-07-09 17:10:00,85.1,70.1,29.97,SE,146,5.0,7.0,61,0.00,BKN,BKN,0.00,WeatherDisplay:10.31,2013-07-09 21:10:00,
2013-07-09 17:20:00,85.1,70.6,29.96,SSE,154,1.0,6.0,62,0.00,FEW,FEW,0.00,WeatherDisplay:10.31,2013-07-09 21:20:00,
2013-07-09 17:30:00,85.6,70.6,29.96,SE,135,3.0,9.0,61,0.00,CLR,CLR,0.00,WeatherDisplay:10.31,2013-07-09 21:30:00,
2013-07-09 17:40:00,86.1,70.6,29.96,SE,135,3.0,6.0,60,0.00,FEW,FEW,0.00,WeatherDisplay:10.31,2013-07-09 21:40:00,
2013-07-09 17:50:00,86.3,70.7,29.95,SE,135,1.0,6.0,60,0.00,FEW,FEW,0.00,WeatherDisplay:10.31,2013-07-09 21:50:00,
2013-07-09 18:00:00,86.3,70.8,29.95,SE,142,1.0,5.0,60,0.00,FEW,FEW,0.00,WeatherDisplay:10.31,2013-07-09 22:00:00,
2013-07-09 18:05:00,86.1,70.1,29.95,SE,143,5.0,7.0,59,0.00,FEW,FEW,0.00,WeatherDisplay:10.31,2013-07-09 22:05:00,
2013-07-09 18:10:00,85.9,69.9,29.94,SSE,160,3.0,10.0,59,0.00,FEW,FEW,0.00,WeatherDisplay:10.31,2013-07-09 22:10:00,
2013-07-09 18:20:00,85.9,70.4,29.94,South,180,2.0,7.0,60,0.00,FEW,FEW,0.00,WeatherDisplay:10.31,2013-07-09 22:20:00,
2013-07-09 18:30:00,85.7,70.7,29.94,SSW,194,3.0,7.0,61,0.00,FEW,FEW,0.00,WeatherDisplay:10.31,2013-07-09 22:30:00,
2013-07-09 18:40:00,85.3,71.3,29.94,South,186,1.0,8.0,63,0.00,FEW,FEW,0.00,WeatherDisplay:10.31,2013-07-09 22:40:00,
2013-07-09 18:50:00,85.1,72.0,29.93,South,171,2.0,6.0,65,0.00,FEW,FEW,0.00,WeatherDisplay:10.31,2013-07-09 22:50:00,
2013-07-09 19:00:00,84.9,71.8,29.93,South,180,5.0,7.0,65,0.00,FEW,FEW,0.00,WeatherDisplay:10.31,2013-07-09 23:00:00,
2013-07-09 19:05:00,84.8,72.2,29.93,South,180,1.0,12.0,66,0.00,FEW,FEW,0.00,WeatherDisplay:10.31,2013-07-09 23:05:00,
2013-07-09 19:10:00,84.7,72.1,29.93,South,180,3.0,7.0,66,0.00,FEW,FEW,0.00,WeatherDisplay:10.31,2013-07-09 23:10:00,
2013-07-09 19:15:00,84.5,72.3,29.93,South,180,2.0,7.0,67,0.00,FEW,FEW,0.00,WeatherDisplay:10.31,2013-07-09 23:15:00,
2013-07-09 19:20:00,84.5,72.8,29.93,South,177,6.0,10.0,68,0.00,FEW,FEW,0.00,WeatherDisplay:10.31,2013-07-09 23:20:00,
2013-07-09 19:30:00,84.1,72.8,29.93,South,181,6.0,9.0,69,0.00,SCT,SCT,0.00,WeatherDisplay:10.31,2013-07-09 23:30:00,
2013-07-09 19:40:00,84.0,72.7,29.94,SSW,192,5.0,7.0,69,0.00,BKN,BKN,0.00,WeatherDisplay:10.31,2013-07-09 23:40:00,
2013-07-09 19:50:00,83.8,72.9,29.94,SSW,202,5.0,6.0,70,0.00,BKN,BKN,0.00,WeatherDisplay:10.31,2013-07-09 23:50:00,
2013-07-09 20:00:00,83.4,73.0,29.94,SSW,192,5.0,7.0,71,0.00,SCT,SCT,0.00,WeatherDisplay:10.31,2013-07-10 00:00:00,
2013-07-09 20:05:00,83.2,73.2,29.94,South,180,1.0,7.0,72,0.00,BKN,BKN,0.00,WeatherDisplay:10.31,2013-07-10 00:05:00,
2013-07-09 20:10:00,83.2,73.2,29.94,South,180,5.0,7.0,72,0.00,BKN,BKN,0.00,WeatherDisplay:10.31,2013-07-10 00:10:00,
2013-07-09 20:20:00,82.9,73.4,29.95,South,180,3.0,5.0,73,0.00,OVC,OVC,0.00,WeatherDisplay:10.31,2013-07-10 00:20:00,
2013-07-09 20:30:00,82.6,73.5,29.96,South,180,2.0,5.0,74,0.00,OVC,OVC,0.00,WeatherDisplay:10.31,2013-07-10 00:30:00,
2013-07-09 20:40:00,82.4,73.7,29.95,South,180,2.0,5.0,75,0.00,OVC,OVC,0.00,WeatherDisplay:10.31,2013-07-10 00:40:00,
2013-07-09 20:50:00,82.2,73.9,29.96,South,180,2.0,5.0,76,0.00,OVC,OVC,0.00,WeatherDisplay:10.31,2013-07-10 00:50:00,
2013-07-09 21:00:00,82.0,74.1,29.96,South,180,1.0,3.0,77,0.00,OVC,OVC,0.00,WeatherDisplay:10.31,2013-07-10 01:00:00,
2013-07-09 21:10:00,81.8,73.9,29.96,South,180,1.0,5.0,77,0.00,OVC,OVC,0.00,WeatherDisplay:10.31,2013-07-10 01:10:00,
2013-07-09 21:20:00,81.6,74.1,29.97,South,180,1.0,3.0,78,0.00,OVC,OVC,0.00,WeatherDisplay:10.31,2013-07-10 01:20:00,
2013-07-09 21:30:00,81.4,74.3,29.97,South,180,1.0,3.0,79,0.00,OVC,OVC,0.00,WeatherDisplay:10.31,2013-07-10 01:30:00,
2013-07-09 21:40:00,81.2,74.4,29.97,South,180,2.0,3.0,80,0.00,OVC,OVC,0.00,WeatherDisplay:10.31,2013-07-10 01:40:00,
2013-07-09 21:50:00,80.9,74.1,29.98,South,180,3.0,5.0,80,0.00,OVC,OVC,0.00,WeatherDisplay:10.31,2013-07-10 01:50:00,
2013-07-09 22:00:00,80.7,74.3,29.98,South,180,1.0,5.0,81,0.00,OVC,OVC,0.00,WeatherDisplay:10.31,2013-07-10 02:00:00,
2013-07-09 22:10:00,80.5,74.1,29.98,South,180,3.0,9.0,81,0.00,OVC,OVC,0.00,WeatherDisplay:10.31,2013-07-10 02:10:00,
2013-07-09 22:20:00,80.3,74.3,29.98,South,180,2.0,5.0,82,0.00,OVC,OVC,0.00,WeatherDisplay:10.31,2013-07-10 02:20:00,
2013-07-09 22:30:00,80.3,74.3,29.98,South,180,5.0,6.0,82,0.00,OVC,OVC,0.00,WeatherDisplay:10.31,2013-07-10 02:30:00,
2013-07-09 22:40:00,80.1,74.1,29.97,South,180,2.0,5.0,82,0.00,OVC,OVC,0.00,WeatherDisplay:10.31,2013-07-10 02:40:00,
2013-07-09 22:50:00,80.1,74.1,29.96,South,180,1.0,3.0,82,0.00,OVC,OVC,0.00,WeatherDisplay:10.31,2013-07-10 02:50:00,
2013-07-09 23:00:00,79.9,73.9,29.96,South,180,1.0,5.0,82,0.00,OVC,OVC,0.00,WeatherDisplay:10.31,2013-07-10 03:00:00,
2013-07-09 23:05:00,79.8,73.8,29.96,South,180,3.0,6.0,82,0.00,OVC,OVC,0.00,WeatherDisplay:10.31,2013-07-10 03:05:00,
2013-07-09 23:10:00,79.8,73.8,29.96,South,180,5.0,7.0,82,0.00,OVC,OVC,0.00,WeatherDisplay:10.31,2013-07-10 03:10:00,
2013-07-09 23:15:00,79.6,73.6,29.96,South,180,3.0,6.0,82,0.00,OVC,OVC,0.00,WeatherDisplay:10.31,2013-07-10 03:15:00,
2013-07-09 23:20:00,79.4,73.5,29.96,South,184,6.0,7.0,82,0.00,OVC,OVC,0.00,WeatherDisplay:10.31,2013-07-10 03:20:00,
2013-07-09 23:30:00,79.4,73.1,29.96,SSW,199,5.0,12.0,81,0.00,OVC,OVC,0.00,WeatherDisplay:10.31,2013-07-10 03:30:00,
2013-07-09 23:40:00,79.4,73.1,29.96,SSW,201,5.0,10.0,81,0.00,OVC,OVC,0.00,WeatherDisplay:10.31,2013-07-10 03:40:00,
2013-07-09 23:50:00,79.4,73.1,29.95,SSW,200,6.0,12.0,81,0.00,OVC,OVC,0.00,WeatherDisplay:10.31,2013-07-10 03:50:00,